Time;durP1;ratioP1;P1;durP2;ratioP2;P2;SDS_P1;SDS_P2;PMS_P1;PMS_P2;Temp;Humidity;BMP_temperature;BMP_pressure;BME280_temperature;BME280_humidity;BME280_pressure;Samples;Min_cycle;Max_cycle;Signal;HPM_P1;HPM_P2
2024/04/16 00:00:53;;;;;;;7.27;3.10;;;7.00;99.90;;;6.74;89.68;98042.00;5374872;26;20468;-70
2024/04/16 00:03:19;;;;;;;13.20;3.40;;;7.00;99.90;;;6.64;90.24;98035.00;5369816;26;20890;-70
2024/04/16 00:05:47;;;;;;;10.50;3.37;;;7.00;99.90;;;6.69;89.88;98048.53;5351693;26;20259;-71
2024/04/16 00:08:13;;;;;;;7.83;3.47;;;7.70;99.90;;;6.57;89.98;98045.06;5385408;26;20522;-71
2024/04/16 00:10:38;;;;;;;10.97;3.40;;;6.90;99.90;;;6.72;89.62;98051.75;5378322;26;20476;-71
2024/04/16 00:13:04;;;;;;;9.27;3.50;;;6.90;99.90;;;6.82;89.19;98046.63;5382168;26;20295;-71
2024/04/16 00:15:30;;;;;;;10.77;3.40;;;7.00;99.90;;;6.72;89.06;98036.06;5384943;26;20246;-71
2024/04/16 00:17:56;;;;;;;8.50;3.10;;;6.90;99.90;;;6.67;88.49;98038.19;5374733;26;20540;-72
2024/04/16 00:20:22;;;;;;;9.43;3.23;;;6.90;99.90;;;6.72;88.29;98030.84;5350157;26;20340;-71
2024/04/16 00:22:47;;;;;;;6.63;3.57;;;6.90;99.90;;;6.76;87.64;98041.88;5380563;26;20283;-71
2024/04/16 00:25:13;;;;;;;11.80;3.20;;;6.90;99.90;;;6.77;87.63;98029.66;5377137;26;20307;-69
2024/04/16 00:27:40;;;;;;;10.90;3.10;;;7.00;99.90;;;6.86;87.07;98016.72;5375006;26;20241;-67
2024/04/16 00:30:06;;;;;;;10.00;3.10;;;7.00;99.90;;;6.82;86.72;98028.38;5383297;26;20536;-70
2024/04/16 00:32:32;;;;;;;14.13;3.37;;;7.00;99.90;;;6.73;86.97;98029.91;5381497;26;20297;-69
2024/04/16 00:34:58;;;;;;;9.13;3.00;;;6.90;99.90;;;6.78;86.58;98023.50;5373948;26;20596;-69
2024/04/16 00:37:23;;;;;;;10.30;3.43;;;7.00;99.90;;;6.68;86.02;98019.00;5383652;26;20311;-71
2024/04/16 00:39:49;;;;;;;7.63;2.70;;;6.90;99.90;;;6.71;85.94;98010.09;5343780;26;20348;-70
2024/04/16 00:42:15;;;;;;;7.80;3.17;;;6.90;99.90;;;6.74;85.64;98010.66;5379134;26;20254;-71
2024/04/16 00:44:41;;;;;;;10.33;3.37;;;6.90;99.90;;;6.73;84.51;98006.41;5362445;26;20254;-70
2024/04/16 00:47:12;;;;;;;11.67;3.40;;;7.00;99.90;;;6.61;84.10;97998.69;5369086;26;20474;-71
2024/04/16 00:49:38;;;;;;;11.10;3.07;;;6.90;99.90;;;6.74;83.71;98012.47;5380997;26;20534;-70
2024/04/16 00:52:06;;;;;;;11.13;3.07;;;6.90;99.90;;;6.65;83.47;98007.94;5363634;26;20517;-68
2024/04/16 00:54:33;;;;;;;6.20;2.80;;;6.90;99.90;;;6.69;83.19;97996.34;5369985;26;20536;-69
2024/04/16 00:56:59;;;;;;;9.70;2.80;;;7.00;99.90;;;6.78;82.24;97993.03;5351319;26;20531;-70
2024/04/16 00:59:26;;;;;;;12.77;3.30;;;7.00;99.90;;;6.85;82.04;97998.59;5380698;26;20524;-71
2024/04/16 01:01:56;;;;;;;14.00;3.33;;;7.00;99.90;;;6.81;79.93;97987.56;5369695;26;20469;-70
2024/04/16 01:04:22;;;;;;;9.40;3.10;;;7.00;99.90;;;6.93;80.50;97999.63;5364864;26;20783;-68
2024/04/16 01:06:52;;;;;;;7.23;2.80;;;7.10;99.90;;;6.82;79.99;98002.28;5362604;26;20487;-70
2024/04/16 01:09:19;;;;;;;8.73;3.30;;;7.10;99.90;;;6.86;79.98;97985.41;5376526;26;20476;-69
2024/04/16 01:11:48;;;;;;;11.53;3.03;;;7.10;99.90;;;6.94;79.68;97998.72;5380193;26;20528;-70
2024/04/16 01:14:14;;;;;;;9.70;3.50;;;7.10;99.90;;;6.92;79.48;97997.16;5377546;26;20613;-71
2024/04/16 01:16:41;;;;;;;9.17;3.17;;;7.10;99.90;;;6.99;79.59;98000.94;5371064;26;20529;-66
2024/04/16 01:19:07;;;;;;;8.33;2.60;;;7.10;99.90;;;6.88;79.33;98009.63;5385949;26;20494;-70
2024/04/16 01:21:33;;;;;;;9.77;3.33;;;7.10;99.90;;;6.77;78.47;98001.78;5376730;26;20479;-70
2024/04/16 01:23:59;;;;;;;9.60;3.10;;;7.00;99.90;;;6.75;78.26;98001.09;5372124;26;20536;-68
2024/04/16 01:26:25;;;;;;;7.73;3.10;;;7.00;99.90;;;6.81;78.11;98011.06;5387735;26;20563;-70
2024/04/16 01:28:50;;;;;;;10.30;2.83;;;7.10;99.90;;;6.72;78.02;98015.19;5380777;26;20243;-71
2024/04/16 01:31:16;;;;;;;10.00;3.43;;;7.00;99.90;;;6.78;78.15;98021.72;5371702;26;20246;-71
2024/04/16 01:33:42;;;;;;;6.57;2.40;;;7.00;99.90;;;6.88;77.97;98012.25;5387455;26;20561;-69
2024/04/16 01:36:08;;;;;;;7.40;3.00;;;7.00;99.90;;;6.90;78.20;98007.75;5368228;26;20242;-70
2024/04/16 01:38:33;;;;;;;7.87;2.77;;;7.10;99.90;;;6.74;76.53;98007.25;5414603;26;20253;-70
2024/04/16 01:41:02;;;;;;;11.33;2.93;;;7.00;99.90;;;6.64;75.61;98024.56;5366144;26;20627;-70
2024/04/16 01:43:28;;;;;;;8.17;3.23;;;6.90;99.90;;;6.66;75.82;98025.28;5378726;26;20307;-69
2024/04/16 01:45:53;;;;;;;9.17;3.03;;;6.90;99.90;;;6.65;75.43;98024.47;5365793;26;21255;-70
2024/04/16 01:48:19;;;;;;;9.33;3.70;;;6.90;99.90;;;6.52;75.31;98008.03;5373992;26;20543;-70
2024/04/16 01:50:45;;;;;;;13.23;3.30;;;6.80;99.90;;;6.53;75.04;98016.72;5374759;26;20246;-71
2024/04/16 01:53:11;;;;;;;11.40;3.20;;;6.80;99.90;;;6.46;75.98;98013.72;5377461;26;20247;-71
2024/04/16 01:55:38;;;;;;;8.53;2.80;;;6.80;99.90;;;6.45;76.29;98012.06;5380311;26;20472;-71
2024/04/16 01:58:05;;;;;;;9.93;3.27;;;6.80;99.90;;;6.34;76.03;98017.28;5381381;26;20365;-69
2024/04/16 02:00:31;;;;;;;6.87;2.80;;;6.70;99.90;;;6.47;75.31;98016.25;5374821;26;20478;-70
2024/04/16 02:03:00;;;;;;;6.80;2.87;;;6.70;99.90;;;6.40;75.76;98008.97;5349589;26;20481;-67
2024/04/16 02:05:26;;;;;;;8.50;3.00;;;6.70;99.90;;;6.47;75.84;98008.41;5373730;26;20488;-67
2024/04/16 02:07:51;;;;;;;7.33;2.83;;;6.70;99.90;;;6.49;75.25;98010.88;5373896;26;20527;-70
2024/04/16 02:10:17;;;;;;;11.40;3.20;;;6.80;99.90;;;6.47;75.68;97997.16;5366096;26;20475;-69
2024/04/16 02:12:45;;;;;;;12.00;3.73;;;6.80;99.90;;;6.54;75.14;98000.94;5354753;26;20303;-69
2024/04/16 02:15:11;;;;;;;8.40;3.20;;;6.80;99.90;;;6.64;75.49;98007.13;5379499;26;21304;-70
2024/04/16 02:17:40;;;;;;;13.60;3.07;;;6.80;99.90;;;6.61;75.38;97990.88;5379244;26;20567;-68
2024/04/16 02:20:08;;;;;;;9.50;3.10;;;6.80;99.90;;;6.68;75.25;97985.06;5380780;26;20296;-68
2024/04/16 02:22:33;;;;;;;9.93;3.43;;;6.80;99.90;;;6.53;75.31;97991.47;5388709;26;20472;-71
2024/04/16 02:24:59;;;;;;;10.50;3.10;;;6.80;99.90;;;6.58;75.56;97984.09;5355679;26;20909;-70
2024/04/16 02:27:25;;;;;;;8.70;3.30;;;6.80;99.90;;;6.69;75.44;97991.94;5369696;26;20250;-70
2024/04/16 02:29:51;;;;;;;7.10;3.27;;;6.80;99.90;;;6.71;75.44;97995.28;5383554;26;20239;-70
2024/04/16 02:32:16;;;;;;;11.77;3.40;;;6.90;99.90;;;6.59;76.02;97998.84;5374316;26;20253;-70
2024/04/16 02:34:42;;;;;;;8.63;3.47;;;6.90;99.90;;;6.57;76.38;97992.88;5384947;26;20505;-72
2024/04/16 02:37:08;;;;;;;10.30;3.00;;;6.80;99.90;;;6.66;76.76;97993.97;5371040;26;20470;-70
2024/04/16 02:39:34;;;;;;;10.20;3.13;;;6.80;99.90;;;6.57;77.36;97995.50;5357083;26;20858;-72
2024/04/16 02:42:00;;;;;;;7.13;2.63;;;6.80;99.90;;;6.40;78.27;98002.00;5376730;26;20486;-69
2024/04/16 02:44:25;;;;;;;6.43;2.90;;;6.70;99.90;;;6.42;79.13;98005.31;5367408;26;20795;-70
2024/04/16 02:46:51;;;;;;;9.70;2.80;;;6.70;99.90;;;6.55;78.55;98007.81;5373668;26;20257;-70
2024/04/16 02:49:17;;;;;;;10.00;2.73;;;6.80;99.90;;;6.67;78.07;97998.22;5366525;26;20246;-72
2024/04/16 02:51:42;;;;;;;8.00;2.90;;;6.80;99.90;;;6.60;78.52;97999.66;5377455;26;20312;-72
2024/04/16 02:54:08;;;;;;;9.87;2.97;;;6.80;99.90;;;6.54;78.37;98002.72;5369253;26;20246;-70
2024/04/16 02:56:34;;;;;;;9.80;2.77;;;6.80;99.90;;;6.48;78.27;98004.84;5378511;26;20258;-70
2024/04/16 02:59:00;;;;;;;8.30;2.87;;;6.80;99.90;;;6.41;78.97;98003.66;5371017;26;20241;-66
2024/04/16 03:01:25;;;;;;;8.67;2.70;;;6.70;99.90;;;6.39;78.74;98002.94;5372944;26;20301;-71
2024/04/16 03:03:55;;;;;;;7.87;2.80;;;6.70;99.90;;;6.54;79.12;97997.50;5366406;26;20253;-71
2024/04/16 03:06:21;;;;;;;9.27;2.83;;;6.70;99.90;;;6.58;78.68;98006.75;5366849;26;20292;-70
2024/04/16 03:08:50;;;;;;;9.97;3.00;;;;;;;6.63;78.36;98002.84;5387474;26;20472;-70
2024/04/16 03:11:16;;;;;;;9.43;2.97;;;6.80;99.90;;;6.62;78.81;97995.13;5381006;26;20564;-72
2024/04/16 03:13:41;;;;;;;7.07;2.60;;;6.80;99.90;;;6.48;79.19;97997.03;5410528;26;20466;-71
2024/04/16 03:16:07;;;;;;;8.37;3.63;;;6.70;99.90;;;6.39;78.59;97984.69;5356154;26;20269;-70
2024/04/16 03:18:33;;;;;;;7.40;2.97;;;6.70;99.90;;;6.57;78.77;97982.44;5366662;26;20259;-72
2024/04/16 03:21:00;;;;;;;8.47;2.80;;;6.80;99.90;;;6.59;78.60;97982.31;5380296;26;20518;-71
2024/04/16 03:23:26;;;;;;;9.80;2.77;;;6.80;99.90;;;6.58;78.79;97978.06;5354029;26;20255;-72
2024/04/16 03:25:52;;;;;;;6.70;2.80;;;6.80;99.90;;;6.58;78.70;97985.88;5340708;26;20543;-72
2024/04/16 03:28:17;;;;;;;7.07;3.00;;;6.80;99.90;;;6.56;78.89;97980.81;5390913;26;20472;-72
2024/04/16 03:30:43;;;;;;;9.73;2.60;;;6.80;99.90;;;6.71;78.54;97979.63;5375632;26;20256;-71
2024/04/16 03:33:09;;;;;;;11.73;2.90;;;6.90;99.90;;;6.69;78.84;97975.47;5350554;26;20296;-72
2024/04/16 03:35:35;;;;;;;10.33;3.00;;;6.80;99.90;;;6.63;78.94;97970.72;5369805;26;20267;-71
2024/04/16 03:38:01;;;;;;;4.80;2.37;;;6.90;99.90;;;6.70;78.79;97971.91;5374359;26;20356;-71
2024/04/16 03:40:27;;;;;;;7.70;2.87;;;6.90;99.90;;;6.45;79.68;97971.16;5387986;26;20468;-71
2024/04/16 03:42:53;;;;;;;11.83;3.10;;;6.70;99.90;;;6.36;79.96;97961.44;5378293;26;20468;-72
2024/04/16 03:45:19;;;;;;;12.13;3.50;;;6.70;99.90;;;6.38;79.59;97982.19;5378281;26;20522;-70
2024/04/16 03:47:45;;;;;;;8.70;2.63;;;6.60;99.90;;;6.36;79.81;97971.88;5369864;26;20290;-71
2024/04/16 03:50:11;;;;;;;11.07;2.90;;;6.60;99.90;;;6.31;79.43;97976.63;5381379;26;20249;-72
2024/04/16 03:52:37;;;;;;;8.37;2.93;;;6.60;99.90;;;6.36;79.93;97974.47;5368324;26;20596;-70
2024/04/16 03:55:05;;;;;;;9.00;2.80;;;6.60;99.90;;;6.28;80.13;97984.69;5374911;26;21057;-69
2024/04/16 03:57:31;;;;;;;9.23;3.07;;;6.50;99.90;;;6.19;80.66;97980.16;5383605;26;20726;-71
2024/04/16 04:02:26;;;;;;;5.47;3.20;;;6.50;99.90;;;6.31;80.90;97981.84;5379602;26;20553;-71
2024/04/16 04:04:51;;;;;;;9.43;3.17;;;6.50;99.90;;;6.10;81.48;97984.28;5382223;26;20548;-70
2024/04/16 04:07:18;;;;;;;11.17;3.47;;;6.50;99.90;;;6.15;81.38;97989.97;5368610;26;20537;-71
2024/04/16 04:09:44;;;;;;;10.50;2.83;;;6.40;99.90;;;6.11;82.34;97995.53;5380742;26;20305;-71
2024/04/16 04:12:10;;;;;;;9.40;3.20;;;7.20;99.90;;;6.12;82.33;97997.22;5347367;26;20475;-71
2024/04/16 04:14:36;;;;;;;11.53;3.60;;;6.40;99.90;;;6.17;82.79;97984.63;5373395;26;20964;-68
2024/04/16 04:17:01;;;;;;;8.83;3.17;;;6.40;99.90;;;6.23;81.96;97995.44;5375826;26;20478;-70
2024/04/16 04:19:27;;;;;;;13.83;3.67;;;6.40;99.90;;;6.21;82.40;97993.88;5384490;26;20313;-71
2024/04/16 04:21:53;;;;;;;12.40;3.00;;;6.40;99.90;;;6.22;81.87;97992.97;5369492;26;20312;-68
2024/04/16 04:24:19;;;;;;;11.33;2.97;;;6.40;99.90;;;6.06;82.40;97993.28;5365350;26;20255;-70
2024/04/16 04:26:45;;;;;;;8.57;2.87;;;6.40;99.90;;;6.18;82.03;97987.16;5378138;26;20295;-70
2024/04/16 04:29:11;;;;;;;9.70;2.70;;;6.40;99.90;;;6.21;82.21;97973.88;5358613;26;20245;-71
2024/04/16 04:31:37;;;;;;;11.37;3.47;;;6.50;99.90;;;6.13;81.55;97985.81;5361376;26;20470;-69
2024/04/16 04:34:02;;;;;;;13.57;3.50;;;6.40;99.90;;;6.20;81.46;97985.22;5383459;26;20485;-70
2024/04/16 04:36:29;;;;;;;15.27;3.30;;;6.40;99.90;;;6.12;81.35;97981.56;5367622;26;20535;-71
2024/04/16 04:38:54;;;;;;;8.57;3.00;;;6.40;99.90;;;6.06;81.90;97976.81;5339598;26;20745;-71
2024/04/16 04:41:20;;;;;;;8.53;2.90;;;6.30;99.90;;;6.06;81.55;97976.81;5375141;26;21362;-71
2024/04/16 04:43:49;;;;;;;8.97;3.20;;;6.30;99.90;;;5.94;81.99;97984.56;5377456;26;20649;-69
2024/04/16 04:46:15;;;;;;;12.03;3.50;;;6.30;99.90;;;5.88;82.39;97978.97;5371201;26;20296;-71
2024/04/16 04:48:40;;;;;;;12.77;3.27;;;6.20;99.90;;;5.96;82.13;97972.28;5378754;26;20467;-65
2024/04/16 04:51:06;;;;;;;11.53;3.10;;;6.20;99.90;;;5.87;82.01;97966.88;5368051;26;20337;-70
2024/04/16 04:53:32;;;;;;;12.90;3.93;;;6.20;99.90;;;5.68;82.68;97949.19;5374805;26;20253;-70
2024/04/16 04:55:58;;;;;;;9.03;3.20;;;6.10;99.90;;;5.85;82.45;97945.31;5369410;26;20241;-63
2024/04/16 04:58:23;;;;;;;10.27;3.57;;;6.60;99.90;;;5.71;83.31;97948.94;5380797;26;20240;-71
2024/04/16 05:00:49;;;;;;;13.33;3.63;;;6.00;99.90;;;5.77;83.39;97961.53;5408970;26;20475;-70
2024/04/16 05:03:15;;;;;;;14.87;3.80;;;6.10;99.90;;;5.80;84.04;97963.88;5410498;26;20241;-66
2024/04/16 05:05:45;;;;;;;9.67;4.20;;;6.00;99.90;;;6.03;83.36;97950.00;5373814;26;20279;-68
2024/04/16 05:08:11;;;;;;;8.13;3.73;;;6.10;99.90;;;6.17;82.18;97946.34;5371416;26;20252;-66
2024/04/16 05:10:37;;;;;;;13.90;3.90;;;6.30;99.90;;;6.30;81.98;97953.25;5367502;26;20526;-69
2024/04/16 05:13:03;;;;;;;8.57;3.30;;;6.40;99.90;;;6.17;82.15;97945.53;5367913;26;20483;-68
2024/04/16 05:15:29;;;;;;;10.33;3.43;;;6.40;99.90;;;6.19;82.51;97957.50;5343358;26;20559;-68
2024/04/16 05:17:55;;;;;;;12.00;3.63;;;6.40;99.90;;;5.98;83.56;97949.50;5347863;26;20484;-70
2024/04/16 05:20:21;;;;;;;6.63;3.20;;;6.30;99.90;;;6.04;83.46;97953.44;5373730;26;20517;-67
2024/04/16 05:22:48;;;;;;;7.63;3.37;;;6.30;99.90;;;6.07;83.42;97952.38;5354492;26;20252;-69
2024/04/16 05:25:14;;;;;;;11.23;3.37;;;6.30;99.90;;;5.97;83.88;97955.69;5370816;26;21617;-69
2024/04/16 05:27:40;;;;;;;11.90;3.63;;;6.30;99.90;;;5.84;85.29;97952.31;5379527;26;20473;-67
2024/04/16 05:30:08;;;;;;;14.23;3.80;;;6.20;99.90;;;5.92;84.06;97965.56;5342914;26;20252;-65
2024/04/16 05:32:34;;;;;;;12.73;3.67;;;6.20;99.90;;;5.99;84.41;97963.38;5373790;26;20295;-67
2024/04/16 05:35:00;;;;;;;12.03;3.97;;;6.30;99.90;;;6.02;84.54;97961.41;5368596;26;20475;-67
2024/04/16 05:37:26;;;;;;;10.70;3.60;;;6.30;99.90;;;5.92;84.63;97964.75;5372105;26;20372;-66
2024/04/16 05:39:51;;;;;;;11.60;3.50;;;6.20;99.90;;;5.92;85.56;97962.97;5385966;26;20472;-69
2024/04/16 05:42:17;;;;;;;12.30;3.57;;;6.20;99.90;;;5.92;84.91;97949.13;5384680;26;20356;-69
2024/04/16 05:44:43;;;;;;;10.53;3.63;;;6.20;99.90;;;5.76;85.48;97950.25;5379709;26;20248;-70
2024/04/16 05:47:08;;;;;;;19.53;3.97;;;6.10;99.90;;;5.87;84.94;97959.06;5382003;26;20925;-70
2024/04/16 05:49:34;;;;;;;11.13;3.90;;;6.20;99.90;;;5.97;84.93;97955.69;5364137;26;20249;-70
2024/04/16 05:52:00;;;;;;;16.33;4.87;;;6.20;99.90;;;6.13;84.94;97954.53;5376835;26;20290;-68
2024/04/16 05:54:27;;;;;;;15.20;4.00;;;6.30;99.90;;;6.07;85.21;97963.66;5358944;26;20253;-70
2024/04/16 05:56:53;;;;;;;11.77;3.53;;;6.30;99.90;;;5.96;86.63;97967.06;5384911;26;20810;-69
2024/04/16 05:59:20;;;;;;;18.00;3.90;;;5.30;99.90;;;6.00;86.97;97965.06;5382433;26;20479;-69
2024/04/16 06:01:46;;;;;;;9.87;3.77;;;6.40;99.90;;;5.99;85.65;97943.38;5373040;26;20625;-69
2024/04/16 06:04:12;;;;;;;10.90;3.33;;;6.30;99.90;;;6.07;85.48;97953.22;5361683;26;20474;-70
2024/04/16 06:06:37;;;;;;;9.60;3.43;;;6.30;99.90;;;6.00;85.15;97947.63;5388210;26;20250;-69
2024/04/16 06:09:04;;;;;;;8.80;3.30;;;6.30;99.90;;;6.10;84.70;97949.56;5384461;26;20759;-68
2024/04/16 06:11:31;;;;;;;17.27;3.80;;;6.40;99.90;;;6.08;85.94;97959.25;5382253;26;20292;-70
2024/04/16 06:13:58;;;;;;;13.50;3.63;;;6.40;99.90;;;6.04;86.32;97969.09;5376396;26;20543;-70
2024/04/16 06:16:24;;;;;;;13.90;4.13;;;6.40;99.90;;;5.93;87.80;97961.25;5377102;26;20562;-68
2024/04/16 06:18:54;;;;;;;13.77;3.83;;;6.30;99.90;;;5.92;87.50;97962.97;5370111;26;20498;-70
2024/04/16 06:21:20;;;;;;;18.13;3.83;;;6.30;99.90;;;5.92;88.20;97970.78;5380093;26;20241;-69
2024/04/16 06:23:46;;;;;;;12.87;3.87;;;6.30;99.90;;;5.92;88.60;97965.56;5372089;26;20525;-70
2024/04/16 06:26:12;;;;;;;12.20;3.93;;;6.30;99.90;;;5.98;89.32;97970.38;5370699;26;21341;-70
2024/04/16 06:28:39;;;;;;;10.40;4.13;;;6.30;99.90;;;5.90;90.68;97962.28;5358562;26;20499;-66
2024/04/16 06:31:05;;;;;;;11.80;4.10;;;6.20;99.90;;;6.05;90.83;97939.44;5350825;26;20258;-69
2024/04/16 06:33:36;;;;;;;9.93;3.50;;;6.60;99.90;;;6.13;91.44;97957.16;5335794;26;20471;-70
2024/04/16 06:36:05;;;;;;;9.80;4.07;;;6.30;99.90;;;6.13;91.60;97970.19;5370027;26;20252;-69
2024/04/16 06:38:32;;;;;;;9.17;3.67;;;6.40;99.90;;;6.24;91.15;97959.75;5371783;26;20533;-69
2024/04/16 06:41:01;;;;;;;9.47;3.60;;;6.40;99.90;;;6.12;91.88;97968.53;5368958;26;20538;-68
2024/04/16 06:43:28;;;;;;;7.60;3.67;;;6.40;99.90;;;6.03;90.72;97973.47;5364165;26;20481;-70
2024/04/16 06:45:58;;;;;;;13.80;3.83;;;6.40;99.90;;;6.11;91.20;97967.66;5375617;26;20463;-70
2024/04/16 06:48:24;;;;;;;9.43;3.47;;;6.40;99.90;;;6.04;91.32;97974.31;5361760;26;21026;-70
2024/04/16 06:50:50;;;;;;;11.40;3.23;;;6.40;99.90;;;6.14;92.05;97964.84;5394954;26;20488;-71
2024/04/16 06:53:16;;;;;;;6.30;2.80;;;6.40;99.90;;;6.09;90.96;97966.16;5345708;26;20286;-69
2024/04/16 06:55:42;;;;;;;5.80;2.87;;;6.40;99.90;;;6.00;90.86;97957.25;5365989;26;20936;-70
2024/04/16 06:58:08;;;;;;;7.00;3.47;;;6.40;99.90;;;6.02;91.35;97964.00;5364840;26;21140;-70
2024/04/16 07:00:34;;;;;;;6.87;2.80;;;6.30;99.90;;;6.14;92.17;97958.78;5370626;26;20570;-70
2024/04/16 07:03:00;;;;;;;5.33;2.77;;;6.40;99.90;;;6.10;91.40;97962.59;5362269;26;20489;-68
2024/04/16 07:05:26;;;;;;;9.10;2.90;;;6.40;99.90;;;5.95;92.39;97946.31;5377749;26;20504;-70
2024/04/16 07:07:52;;;;;;;7.50;2.90;;;6.30;99.90;;;5.80;93.72;97963.88;5370212;26;20529;-71
2024/04/16 07:10:18;;;;;;;5.87;2.50;;;6.20;99.90;;;5.64;93.80;97956.34;5374052;26;20328;-71
2024/04/16 07:12:44;;;;;;;5.20;2.57;;;6.10;99.90;;;5.64;95.21;97960.75;5349056;26;20460;-70
2024/04/16 07:15:10;;;;;;;6.20;2.80;;;6.00;99.90;;;5.62;96.13;97942.63;5370748;26;20474;-71
2024/04/16 07:17:36;;;;;;;4.83;2.43;;;6.00;99.90;;;5.61;95.08;97935.75;5378465;26;20318;-71
2024/04/16 07:20:02;;;;;;;4.77;2.30;;;6.00;99.90;;;5.58;94.90;97936.81;5378882;26;20487;-67
2024/04/16 07:22:27;;;;;;;5.10;3.00;;;5.90;99.90;;;5.49;95.16;97934.88;5361084;26;20248;-66
2024/04/16 07:24:54;;;;;;;7.10;2.60;;;5.80;99.90;;;5.75;95.23;97932.13;5370952;26;20475;-70
2024/04/16 07:27:21;;;;;;;6.67;3.07;;;5.90;99.90;;;5.81;94.75;97923.88;5369991;26;20291;-69
2024/04/16 07:29:47;;;;;;;9.93;3.17;;;6.00;99.90;;;5.73;95.64;97928.81;5358969;26;20472;-70
2024/04/16 07:32:14;;;;;;;6.17;2.73;;;5.90;99.90;;;5.66;96.11;97925.81;5373998;26;20466;-70
2024/04/16 07:34:40;;;;;;;9.50;3.40;;;5.90;99.90;;;5.62;97.39;97926.19;5341719;26;20512;-69
2024/04/16 07:37:06;;;;;;;9.97;5.63;;;5.90;99.90;;;5.74;98.33;97917.47;5364891;26;21128;-70
2024/04/16 07:39:32;;;;;;;7.73;3.70;;;6.00;99.90;;;5.86;97.71;97910.47;5373765;26;20549;-69
2024/04/16 07:41:57;;;;;;;10.80;4.13;;;6.00;99.90;;;5.96;97.22;97899.31;5368934;26;20237;-66
2024/04/16 07:44:23;;;;;;;13.63;3.80;;;6.10;99.90;;;5.93;97.46;97899.53;5348935;26;20245;-69
2024/04/16 07:46:49;;;;;;;9.30;3.77;;;6.20;99.90;;;5.94;97.65;97889.94;5381486;26;20249;-65
2024/04/16 07:49:15;;;;;;;10.50;3.93;;;6.10;99.90;;;6.11;98.14;97899.06;5373656;26;20276;-70
2024/04/16 07:51:41;;;;;;;10.97;4.70;;;6.20;99.90;;;6.13;97.37;97897.19;5394746;26;20487;-69
2024/04/16 07:54:07;;;;;;;11.20;4.00;;;6.30;99.90;;;5.98;97.47;97897.38;5368487;26;20587;-69
2024/04/16 07:56:33;;;;;;;12.97;4.10;;;6.30;99.90;;;6.00;98.50;97898.09;5371765;26;21190;-68
2024/04/16 07:58:58;;;;;;;13.40;4.07;;;6.30;99.90;;;6.18;98.48;97919.34;5343421;26;21046;-64
2024/04/16 08:01:24;;;;;;;15.20;4.07;;;6.30;99.90;;;6.18;98.64;97908.06;5363667;26;20252;-68
2024/04/16 08:03:50;;;;;;;8.60;3.83;;;6.40;99.90;;;6.26;98.25;97916.16;5365513;26;20301;-69
2024/04/16 08:06:16;;;;;;;13.00;4.30;;;6.50;99.90;;;6.25;98.08;97917.09;5367025;26;20712;-69
2024/04/16 08:08:41;;;;;;;8.77;3.80;;;6.50;99.90;;;6.23;98.34;97906.78;5379397;26;20331;-69
2024/04/16 08:11:12;;;;;;;10.73;3.83;;;6.50;99.90;;;6.41;98.81;97907.16;5370621;26;20245;-70
2024/04/16 08:13:39;;;;;;;15.17;3.80;;;6.60;99.90;;;6.38;98.54;97904.78;5367698;26;20238;-70
2024/04/16 08:16:06;;;;;;;12.87;4.17;;;6.60;99.90;;;6.28;97.61;97898.63;5362309;26;20517;-66
2024/04/16 08:18:33;;;;;;;8.93;3.57;;;6.60;99.90;;;6.27;98.51;97904.75;5374538;26;20527;-69
2024/04/16 08:20:59;;;;;;;9.60;4.00;;;6.60;99.90;;;6.39;98.57;97900.38;5343199;26;21022;-69
2024/04/16 08:23:24;;;;;;;9.20;4.20;;;7.60;99.90;;;6.47;97.50;97904.06;5371584;26;20519;-69
2024/04/16 08:26:04;;;;;;;10.47;3.77;;;6.70;99.90;;;6.65;97.09;97908.78;5401238;26;20303;-70
2024/04/16 08:28:30;;;;;;;13.93;3.80;;;6.80;99.90;;;6.61;96.27;97905.59;5374202;26;20487;-69
2024/04/16 08:30:57;;;;;;;7.50;3.30;;;6.80;99.90;;;6.67;97.02;97909.50;5372728;26;20479;-69
2024/04/16 08:33:24;;;;;;;9.33;3.40;;;6.80;99.90;;;6.60;96.53;97918.78;5385117;26;20535;-69
2024/04/16 08:35:51;;;;;;;7.20;3.20;;;6.90;99.90;;;6.41;95.56;97920.19;5360686;26;20485;-69
2024/04/16 08:38:18;;;;;;;8.60;3.30;;;6.80;99.90;;;6.47;96.74;97917.13;5362595;26;20484;-68
2024/04/16 08:40:45;;;;;;;6.73;3.27;;;6.70;99.90;;;6.49;97.54;97915.22;5370987;26;20574;-70
2024/04/16 08:43:12;;;;;;;10.20;3.80;;;6.80;99.90;;;6.44;99.80;97911.31;5372149;26;21497;-70
2024/04/16 08:45:41;;;;;;;10.00;3.97;;;6.70;99.90;;;6.54;99.72;97921.84;5355570;26;20480;-67
2024/04/16 08:48:08;;;;;;;14.23;4.57;;;6.80;99.90;;;6.41;99.50;97930.63;5376684;26;20559;-70
2024/04/16 08:50:36;;;;;;;9.40;3.67;;;6.70;99.90;;;6.59;99.74;97912.72;5373079;26;20496;-69
2024/04/16 08:53:03;;;;;;;8.93;3.70;;;6.80;99.90;;;6.59;99.05;97925.78;5375809;26;20564;-69
2024/04/16 08:55:32;;;;;;;7.80;3.67;;;6.80;99.90;;;6.56;98.79;97928.63;5365395;26;20466;-70
2024/04/16 08:57:58;;;;;;;8.10;3.90;;;6.80;99.90;;;6.67;99.58;97941.66;5362314;26;20493;-69
2024/04/16 09:00:24;;;;;;;9.70;3.80;;;6.90;99.90;;;6.71;99.80;97953.53;5349104;26;20698;-70
2024/04/16 09:02:51;;;;;;;8.17;3.90;;;6.90;99.90;;;6.69;100.00;97944.16;5366523;26;21145;-70
2024/04/16 09:05:17;;;;;;;7.77;3.80;;;6.90;99.90;;;6.50;99.70;97940.34;5369315;26;20322;-63
2024/04/16 09:07:44;;;;;;;7.63;3.73;;;6.80;99.90;;;6.45;100.00;97950.31;5362491;26;20517;-69
2024/04/16 09:10:24;;;;;;;9.77;4.20;;;6.80;99.90;;;6.45;100.00;97942.47;5379166;26;20467;-69
2024/04/16 09:12:50;;;;;;;7.17;3.47;;;6.80;99.90;;;6.43;100.00;97944.41;5375538;26;20574;-70
2024/04/16 09:15:18;;;;;;;7.07;3.27;;;6.80;99.90;;;6.46;100.00;97938.09;5335260;26;20533;-68
2024/04/16 09:17:56;;;;;;;7.83;3.50;;;6.80;99.90;;;6.52;99.57;97935.00;5377670;26;20570;-70
2024/04/16 09:20:26;;;;;;;9.83;3.50;;;6.80;99.90;;;6.68;99.87;97943.31;5371755;26;20501;-67
2024/04/16 09:22:55;;;;;;;9.47;4.10;;;6.90;99.90;;;6.88;99.81;97944.38;5341101;26;20475;-70
2024/04/16 09:25:23;;;;;;;8.50;3.13;;;6.90;99.90;;;6.89;98.32;97926.94;5359650;26;20659;-69
2024/04/16 09:27:51;;;;;;;7.17;3.17;;;7.00;99.90;;;6.88;96.27;97933.09;5369918;26;20542;-71
2024/04/16 09:30:18;;;;;;;5.90;3.20;;;7.00;99.90;;;6.83;97.37;97935.25;5371025;26;20472;-70
2024/04/16 09:32:57;;;;;;;9.77;3.30;;;7.00;99.90;;;6.89;97.29;97927.75;5344056;26;20495;-70
2024/04/16 09:35:31;;;;;;;9.53;3.47;;;7.10;99.90;;;7.01;97.30;97935.56;5366756;26;20534;-69
2024/04/16 09:38:07;;;;;;;5.80;3.47;;;7.10;99.90;;;7.03;97.41;97936.25;5344824;26;20533;-70
2024/04/16 09:40:34;;;;;;;9.33;3.50;;;7.20;99.90;;;7.08;97.02;97945.41;5362710;26;20520;-70
2024/04/16 09:43:03;;;;;;;7.90;3.30;;;7.30;99.90;;;7.13;96.97;97956.31;5364959;26;20465;-69
2024/04/16 09:45:29;;;;;;;6.50;3.10;;;7.30;99.90;;;7.19;98.05;97955.00;5361105;26;20628;-72
2024/04/16 09:47:59;;;;;;;6.60;3.03;;;7.30;99.90;;;7.14;95.72;97939.69;5371516;26;20453;-69
2024/04/16 09:50:26;;;;;;;6.90;3.07;;;7.30;99.90;;;7.31;96.86;97934.91;5366920;26;20480;-69
2024/04/16 09:52:54;;;;;;;5.77;2.80;;;7.40;99.90;;;7.35;95.06;97936.31;5359107;26;20476;-70
2024/04/16 09:55:24;;;;;;;9.60;3.50;;;7.50;99.90;;;7.42;93.86;97945.31;5358874;26;20490;-68
2024/04/16 09:57:52;;;;;;;7.80;3.00;;;7.50;99.90;;;7.30;94.42;97936.69;5345766;26;20564;-70
2024/04/16 10:00:20;;;;;;;9.70;2.90;;;7.50;99.90;;;7.48;94.28;97930.94;5367849;26;20534;-69
2024/04/16 10:02:47;;;;;;;7.50;2.90;;;7.60;99.90;;;7.54;94.48;97943.50;5351530;26;20463;-71
2024/04/16 10:05:15;;;;;;;4.70;2.77;;;7.60;99.90;;;7.50;93.42;97929.84;5372215;26;20485;-68
2024/04/16 10:07:46;;;;;;;7.37;3.10;;;7.70;99.90;;;7.63;92.94;97935.75;5349476;26;20566;-69
2024/04/16 10:10:13;;;;;;;7.97;3.30;;;7.70;99.90;;;7.52;90.28;97937.56;5371648;26;20486;-69
2024/04/16 10:12:40;;;;;;;10.17;3.40;;;7.80;99.90;;;7.60;91.22;97925.53;5369323;26;21071;-69
2024/04/16 10:15:07;;;;;;;6.93;3.00;;;7.80;99.90;;;7.52;90.31;97935.78;5394630;26;20488;-69
2024/04/16 10:17:49;;;;;;;8.20;3.27;;;7.80;99.90;;;7.55;89.82;97927.69;5372868;26;20620;-69
2024/04/16 10:20:20;;;;;;;6.43;2.90;;;7.80;99.90;;;7.69;89.71;97923.09;5369694;26;20584;-69
2024/04/16 10:23:00;;;;;;;11.40;3.00;;;7.90;99.90;;;7.74;90.82;97936.63;5343131;26;20540;-69
2024/04/16 10:25:33;;;;;;;7.07;3.00;;;7.80;99.90;;;7.83;92.27;97935.88;5360429;26;20518;-69
2024/04/16 10:28:04;;;;;;;6.90;3.00;;;8.00;99.90;;;7.61;91.99;97948.09;5351010;26;20473;-67
2024/04/16 10:30:32;;;;;;;6.57;3.23;;;7.90;99.90;;;7.79;92.37;97937.94;5375770;26;20815;-72